createdAt,value
2017-12-19T00:00:46.371Z,1028.20
2017-12-19T00:01:48.185Z,1028.26
2017-12-19T00:02:50.043Z,1028.20
2017-12-19T00:03:51.904Z,1028.20
2017-12-19T00:04:53.786Z,1028.23
2017-12-19T00:06:07.909Z,1028.23
2017-12-19T00:07:09.770Z,1028.23
2017-12-19T00:08:11.628Z,1028.22
2017-12-19T00:09:13.507Z,1028.23
2017-12-19T00:10:15.304Z,1028.21
2017-12-19T00:11:17.098Z,1028.23
2017-12-19T00:12:18.982Z,1028.24
2017-12-19T00:13:20.861Z,1028.29
2017-12-19T00:14:22.727Z,1028.28
2017-12-19T00:15:36.877Z,1028.31
2017-12-19T00:16:38.760Z,1028.25
2017-12-19T00:17:40.638Z,1028.27
2017-12-19T00:18:42.498Z,1028.25
2017-12-19T00:19:44.298Z,1028.25
2017-12-19T00:20:46.111Z,1028.28
2017-12-19T00:21:47.992Z,1028.30
2017-12-19T00:22:49.850Z,1028.28
2017-12-19T00:23:51.707Z,1028.31
2017-12-19T00:25:05.838Z,1028.32
2017-12-19T00:26:07.699Z,1028.38
2017-12-19T00:27:09.555Z,1028.39
2017-12-19T00:28:11.440Z,1028.41
2017-12-19T00:29:13.254Z,1028.37
2017-12-19T00:30:15.049Z,1028.37
2017-12-19T00:31:16.933Z,1028.37
2017-12-19T00:32:18.790Z,1028.40
2017-12-19T00:33:20.655Z,1028.38
2017-12-19T00:34:34.854Z,1028.44
2017-12-19T00:35:36.725Z,1028.42
2017-12-19T00:36:38.604Z,1028.44
2017-12-19T00:37:40.463Z,1028.37
2017-12-19T00:38:42.260Z,1028.39
2017-12-19T00:39:44.055Z,1028.38
2017-12-19T00:40:45.935Z,1028.35
2017-12-19T00:41:47.822Z,1028.34
2017-12-19T00:42:49.702Z,1028.29
2017-12-19T00:44:03.903Z,1028.33
2017-12-19T00:45:05.784Z,1028.31
2017-12-19T00:46:07.662Z,1028.33
2017-12-19T00:47:09.526Z,1028.32
2017-12-19T00:48:11.342Z,1028.37
2017-12-19T00:49:13.132Z,1028.41
2017-12-19T00:50:14.997Z,1028.38
2017-12-19T00:51:16.859Z,1028.35
2017-12-19T00:52:18.739Z,1028.33
2017-12-19T00:53:32.919Z,1028.39
2017-12-19T00:54:34.798Z,1028.35
2017-12-19T00:55:36.656Z,1028.34
2017-12-19T00:56:38.516Z,1028.35
2017-12-19T00:57:40.313Z,1028.38
2017-12-19T00:58:42.131Z,1028.36
2017-12-19T00:59:44.009Z,1028.38
2017-12-19T01:00:45.871Z,1028.40
2017-12-19T01:01:47.731Z,1028.42
2017-12-19T01:03:01.930Z,1028.40
2017-12-19T01:04:03.813Z,1028.44
2017-12-19T01:05:05.671Z,1028.44
2017-12-19T01:06:07.530Z,1028.42
2017-12-19T01:07:09.318Z,1028.44
2017-12-19T01:08:11.113Z,1028.43
2017-12-19T01:09:12.968Z,1028.39
2017-12-19T01:10:14.835Z,1028.43
2017-12-19T01:11:16.717Z,1028.42
2017-12-19T01:12:30.916Z,1028.45
2017-12-19T01:13:32.796Z,1028.46
2017-12-19T01:14:34.657Z,1028.48
2017-12-19T01:15:36.519Z,1028.49
2017-12-19T01:16:38.332Z,1028.46
2017-12-19T01:17:40.143Z,1028.50
2017-12-19T01:18:42.012Z,1028.47
2017-12-19T01:19:43.892Z,1028.48
2017-12-19T01:20:45.781Z,1028.50
2017-12-19T01:21:59.977Z,1028.48
2017-12-19T01:23:01.834Z,1028.46
2017-12-19T01:24:03.684Z,1028.53
2017-12-19T01:25:05.547Z,1028.49
2017-12-19T01:26:07.344Z,1028.52
2017-12-19T01:27:09.155Z,1028.51
2017-12-19T01:28:11.011Z,1028.50
2017-12-19T01:29:12.873Z,1028.51
2017-12-19T01:30:14.737Z,1028.51
2017-12-19T01:31:28.913Z,1028.58
2017-12-19T01:32:30.772Z,1028.66
2017-12-19T01:33:32.632Z,1028.63
2017-12-19T01:34:34.510Z,1028.60
2017-12-19T01:35:36.309Z,1028.56
2017-12-19T01:36:38.102Z,1028.57
2017-12-19T01:37:39.961Z,1028.57
2017-12-19T01:38:41.848Z,1028.54
2017-12-19T01:39:43.731Z,1028.54
2017-12-19T01:40:57.883Z,1028.53
2017-12-19T01:41:59.763Z,1028.51
2017-12-19T01:43:01.624Z,1028.52
2017-12-19T01:44:03.482Z,1028.57
2017-12-19T01:45:05.279Z,1028.58
2017-12-19T01:46:07.074Z,1028.58
2017-12-19T01:47:08.955Z,1028.61
2017-12-19T01:48:10.839Z,1028.61
2017-12-19T01:49:12.701Z,1028.56
2017-12-19T01:50:26.847Z,1028.59
2017-12-19T01:51:28.710Z,1028.60
2017-12-19T01:52:30.568Z,1028.57
2017-12-19T01:53:32.451Z,1028.52
2017-12-19T01:54:34.246Z,1028.52
2017-12-19T01:55:36.062Z,1028.53
2017-12-19T01:56:37.947Z,1028.56
2017-12-19T01:57:39.831Z,1028.53
2017-12-19T01:58:41.673Z,1028.56
2017-12-19T01:59:55.869Z,1028.57
2017-12-19T02:00:57.734Z,1028.53
2017-12-19T02:01:59.588Z,1028.57
2017-12-19T02:03:01.471Z,1028.51
2017-12-19T02:04:03.290Z,1028.49
2017-12-19T02:05:05.100Z,1028.53
2017-12-19T02:06:06.961Z,1028.49
2017-12-19T02:07:08.842Z,1028.46
2017-12-19T02:08:10.722Z,1028.44
2017-12-19T02:09:24.897Z,1028.43
2017-12-19T02:10:26.751Z,1028.41
2017-12-19T02:11:28.607Z,1028.43
2017-12-19T02:12:30.495Z,1028.42
2017-12-19T02:13:32.309Z,1028.44
2017-12-19T02:14:34.130Z,1028.44
2017-12-19T02:15:36.006Z,1028.48
2017-12-19T02:16:37.861Z,1028.46
2017-12-19T02:17:39.745Z,1028.47
2017-12-19T02:18:53.866Z,1028.53
2017-12-19T02:19:55.727Z,1028.50
2017-12-19T02:20:57.579Z,1028.44
2017-12-19T02:21:59.434Z,1028.48
2017-12-19T02:23:01.231Z,1028.44
2017-12-19T02:24:03.028Z,1028.42
2017-12-19T02:25:04.909Z,1028.44
2017-12-19T02:26:06.789Z,1028.44
2017-12-19T02:27:08.648Z,1028.49
2017-12-19T02:28:22.821Z,1028.50
2017-12-19T02:29:24.675Z,1028.50
2017-12-19T02:30:26.529Z,1028.52
2017-12-19T02:31:28.414Z,1028.52
2017-12-19T02:32:30.206Z,1028.57
2017-12-19T02:33:32.022Z,1028.63
2017-12-19T02:34:33.883Z,1028.66
2017-12-19T02:35:35.762Z,1028.66
2017-12-19T02:36:37.640Z,1028.69
2017-12-19T02:37:51.765Z,1028.77
2017-12-19T02:38:53.622Z,1028.75
2017-12-19T02:39:55.478Z,1028.76
2017-12-19T02:40:57.335Z,1028.80
2017-12-19T02:41:59.133Z,1028.76
2017-12-19T02:43:00.942Z,1028.79
2017-12-19T02:44:02.818Z,1028.78
2017-12-19T02:45:04.676Z,1028.79
2017-12-19T02:46:06.540Z,1028.80
2017-12-19T02:47:20.689Z,1028.89
2017-12-19T02:48:22.573Z,1028.87
2017-12-19T02:49:24.450Z,1028.89
2017-12-19T02:50:26.307Z,1028.90
2017-12-19T02:51:28.103Z,1028.95
2017-12-19T02:52:29.901Z,1028.94
2017-12-19T02:53:31.774Z,1028.94
2017-12-19T02:54:33.640Z,1028.88
2017-12-19T02:55:35.519Z,1028.90
2017-12-19T02:56:49.665Z,1028.93
2017-12-19T02:57:51.520Z,1028.90
2017-12-19T02:58:53.374Z,1028.91
2017-12-19T02:59:55.235Z,1028.91
2017-12-19T03:00:57.055Z,1028.86
2017-12-19T03:01:58.867Z,1028.87
2017-12-19T03:03:00.725Z,1028.84
2017-12-19T03:04:02.600Z,1028.84
2017-12-19T03:05:04.458Z,1028.82
2017-12-19T03:06:18.633Z,1028.85
2017-12-19T03:07:20.489Z,1028.82
2017-12-19T03:08:22.338Z,1028.79
2017-12-19T03:09:24.196Z,1028.76
2017-12-19T03:10:25.991Z,1028.72
2017-12-19T03:11:27.808Z,1028.72
2017-12-19T03:12:29.665Z,1028.72
2017-12-19T03:13:31.546Z,1028.71
2017-12-19T03:14:33.426Z,1028.70
2017-12-19T03:15:47.553Z,1028.75
2017-12-19T03:16:49.432Z,1028.72
2017-12-19T03:17:51.313Z,1028.75
2017-12-19T03:18:53.197Z,1028.74
2017-12-19T03:19:55.011Z,1028.69
2017-12-19T03:20:56.826Z,1028.67
2017-12-19T03:21:58.685Z,1028.67
2017-12-19T03:23:00.565Z,1028.71
2017-12-19T03:24:02.424Z,1028.70
2017-12-19T03:25:16.569Z,1028.71
2017-12-19T03:26:18.427Z,1028.69
2017-12-19T03:27:20.321Z,1028.73
2017-12-19T03:28:22.135Z,1028.78
2017-12-19T03:29:23.928Z,1028.74
2017-12-19T03:30:25.724Z,1028.73
2017-12-19T03:31:27.682Z,1028.75
2017-12-19T03:32:29.511Z,1028.73
2017-12-19T03:33:31.372Z,1028.70
2017-12-19T03:34:45.523Z,1028.70
2017-12-19T03:35:47.400Z,1028.69
2017-12-19T03:36:49.273Z,1028.67
2017-12-19T03:37:51.134Z,1028.62
2017-12-19T03:38:52.952Z,1028.63
2017-12-19T03:39:54.767Z,1028.67
2017-12-19T03:40:56.651Z,1028.60
2017-12-19T03:41:58.524Z,1028.64
2017-12-19T03:43:00.402Z,1028.60
2017-12-19T03:44:14.546Z,1028.64
2017-12-19T03:45:16.395Z,1028.66
2017-12-19T03:46:18.251Z,1028.70
2017-12-19T03:47:20.109Z,1028.73
2017-12-19T03:48:21.910Z,1028.70
2017-12-19T03:49:23.700Z,1028.68
2017-12-19T03:50:25.578Z,1028.62
2017-12-19T03:51:27.423Z,1028.58
2017-12-19T03:52:29.294Z,1028.55
2017-12-19T03:53:43.444Z,1028.57
2017-12-19T03:54:45.325Z,1028.59
2017-12-19T03:55:47.202Z,1028.60
2017-12-19T03:56:49.084Z,1028.63
2017-12-19T03:57:50.872Z,1028.58
2017-12-19T03:58:52.670Z,1028.61
2017-12-19T03:59:54.551Z,1028.59
2017-12-19T04:00:56.433Z,1028.68
2017-12-19T04:01:58.315Z,1028.67
2017-12-19T04:03:12.455Z,1028.74
2017-12-19T04:04:14.317Z,1028.73
2017-12-19T04:05:16.197Z,1028.74
2017-12-19T04:06:18.084Z,1028.70
2017-12-19T04:07:19.894Z,1028.70
2017-12-19T04:08:21.699Z,1028.72
2017-12-19T04:09:23.578Z,1028.71
2017-12-19T04:10:25.438Z,1028.76
2017-12-19T04:11:27.320Z,1028.75
2017-12-19T04:12:41.473Z,1028.78
2017-12-19T04:13:43.345Z,1028.77
2017-12-19T04:14:45.203Z,1028.76
2017-12-19T04:15:47.068Z,1028.76
2017-12-19T04:16:48.862Z,1028.78
2017-12-19T04:17:50.654Z,1028.80
2017-12-19T04:18:52.513Z,1028.83
2017-12-19T04:19:54.393Z,1028.86
2017-12-19T04:20:56.251Z,1028.89
2017-12-19T04:22:10.396Z,1028.90
2017-12-19T04:23:12.256Z,1028.88
2017-12-19T04:24:14.107Z,1028.88
2017-12-19T04:25:15.973Z,1028.84
2017-12-19T04:26:17.762Z,1028.83
2017-12-19T04:27:19.579Z,1028.87
2017-12-19T04:28:21.478Z,1028.89
2017-12-19T04:29:23.356Z,1028.95
2017-12-19T04:30:25.223Z,1028.97
2017-12-19T04:31:39.373Z,1028.95
2017-12-19T04:32:41.287Z,1028.94
2017-12-19T04:33:43.133Z,1028.93
2017-12-19T04:34:45.011Z,1028.91
2017-12-19T04:35:46.830Z,1028.90
2017-12-19T04:36:48.644Z,1028.92
2017-12-19T04:37:50.529Z,1028.92
2017-12-19T04:38:52.412Z,1028.94
2017-12-19T04:39:54.293Z,1028.99
2017-12-19T04:41:08.437Z,1029.02
2017-12-19T04:42:10.295Z,1029.02
2017-12-19T04:43:12.182Z,1029.00
2017-12-19T04:44:14.059Z,1029.01
2017-12-19T04:45:15.872Z,1029.08
2017-12-19T04:46:17.668Z,1029.08
2017-12-19T04:47:19.526Z,1029.08
2017-12-19T04:48:21.379Z,1029.12
2017-12-19T04:49:23.261Z,1029.14
2017-12-19T04:50:37.386Z,1029.16
2017-12-19T04:51:39.248Z,1029.19
2017-12-19T04:52:41.130Z,1029.15
2017-12-19T04:53:42.989Z,1029.15
2017-12-19T04:54:44.785Z,1029.18
2017-12-19T04:55:46.578Z,1029.23
2017-12-19T04:56:48.461Z,1029.18
2017-12-19T04:57:50.337Z,1029.16
2017-12-19T04:58:52.197Z,1029.17
2017-12-19T05:00:06.328Z,1029.15
2017-12-19T05:01:08.295Z,1029.12
2017-12-19T05:02:10.315Z,1029.18
2017-12-19T05:03:12.280Z,1029.26
2017-12-19T05:04:14.156Z,1029.27
2017-12-19T05:05:16.110Z,1029.24
2017-12-19T05:06:18.094Z,1029.24
2017-12-19T05:07:20.100Z,1029.28
2017-12-19T05:08:22.069Z,1029.26
2017-12-19T05:09:36.426Z,1029.25
2017-12-19T05:10:38.505Z,1029.29
2017-12-19T05:11:40.563Z,1029.28
2017-12-19T05:12:42.639Z,1029.30
2017-12-19T05:13:44.514Z,1029.29
2017-12-19T05:14:46.458Z,1029.30
2017-12-19T05:15:48.439Z,1029.30
2017-12-19T05:16:50.429Z,1029.33
2017-12-19T05:17:52.408Z,1029.38
2017-12-19T05:19:06.716Z,1029.34
2017-12-19T05:20:08.780Z,1029.30
2017-12-19T05:21:10.768Z,1029.29
2017-12-19T05:22:12.647Z,1029.29
2017-12-19T05:23:14.447Z,1029.33
2017-12-19T05:24:16.259Z,1029.34
2017-12-19T05:25:18.121Z,1029.33
2017-12-19T05:26:20.000Z,1029.36
2017-12-19T05:27:21.855Z,1029.38
2017-12-19T05:28:36.034Z,1029.32
2017-12-19T05:29:37.887Z,1029.33
2017-12-19T05:30:39.743Z,1029.29
2017-12-19T05:31:41.605Z,1029.28
2017-12-19T05:32:43.400Z,1029.29
2017-12-19T05:33:45.189Z,1029.27
2017-12-19T05:34:47.056Z,1029.31
2017-12-19T05:35:48.932Z,1029.29
2017-12-19T05:36:50.793Z,1029.25
2017-12-19T05:38:04.987Z,1029.26
2017-12-19T05:39:06.845Z,1029.24
2017-12-19T05:40:08.700Z,1029.24
2017-12-19T05:41:10.592Z,1029.27
2017-12-19T05:42:12.408Z,1029.28
2017-12-19T05:43:14.228Z,1029.29
2017-12-19T05:44:16.117Z,1029.30
2017-12-19T05:45:17.989Z,1029.30
2017-12-19T05:46:19.852Z,1029.29
2017-12-19T05:47:34.038Z,1029.26
2017-12-19T05:48:35.894Z,1029.28
2017-12-19T05:49:37.752Z,1029.35
2017-12-19T05:50:39.632Z,1029.36
2017-12-19T05:51:41.456Z,1029.33
2017-12-19T05:52:43.255Z,1029.39
2017-12-19T05:53:45.137Z,1029.43
2017-12-19T05:54:46.982Z,1029.42
2017-12-19T05:55:48.837Z,1029.41
2017-12-19T05:57:02.985Z,1029.43
2017-12-19T05:58:04.846Z,1029.35
2017-12-19T05:59:06.704Z,1029.35
2017-12-19T06:00:08.563Z,1029.35
2017-12-19T06:01:10.354Z,1029.39
2017-12-19T06:02:12.154Z,1029.38
2017-12-19T06:03:14.031Z,1029.33
2017-12-19T06:04:15.925Z,1029.41
2017-12-19T06:05:17.789Z,1029.38
2017-12-19T06:06:31.934Z,1029.35
2017-12-19T06:07:33.790Z,1029.35
2017-12-19T06:08:35.652Z,1029.37
2017-12-19T06:09:37.538Z,1029.36
2017-12-19T06:10:39.357Z,1029.37
2017-12-19T06:11:41.172Z,1029.43
2017-12-19T06:12:43.029Z,1029.45
2017-12-19T06:13:44.902Z,1029.41
2017-12-19T06:14:46.767Z,1029.41
2017-12-19T06:16:00.910Z,1029.41
2017-12-19T06:17:02.769Z,1029.39
2017-12-19T06:18:04.656Z,1029.39
2017-12-19T06:19:06.539Z,1029.38
2017-12-19T06:20:08.321Z,1029.36
2017-12-19T06:21:10.119Z,1029.35
2017-12-19T06:22:12.000Z,1029.35
2017-12-19T06:23:13.873Z,1029.32
2017-12-19T06:24:15.731Z,1029.28
2017-12-19T06:25:29.856Z,1029.20
2017-12-19T06:26:31.719Z,1029.17
2017-12-19T06:27:33.591Z,1029.22
2017-12-19T06:28:35.449Z,1029.13
2017-12-19T06:29:37.249Z,1029.19
2017-12-19T06:30:39.057Z,1029.20
2017-12-19T06:31:40.917Z,1029.23
2017-12-19T06:32:42.796Z,1029.22
2017-12-19T06:33:44.652Z,1029.20
2017-12-19T06:34:58.779Z,1029.13
2017-12-19T06:36:00.590Z,1029.07
2017-12-19T06:37:02.381Z,1029.12
2017-12-19T06:38:04.170Z,1029.15
2017-12-19T06:39:06.027Z,1029.15
2017-12-19T06:40:07.892Z,1029.09
2017-12-19T06:41:09.753Z,1029.03
2017-12-19T06:42:11.562Z,1029.06
2017-12-19T06:43:13.354Z,1029.07
2017-12-19T06:44:27.547Z,1029.16
2017-12-19T06:45:29.407Z,1029.13
2017-12-19T06:46:31.262Z,1029.16
2017-12-19T06:47:33.118Z,1029.21
2017-12-19T06:48:34.929Z,1029.25
2017-12-19T06:49:36.726Z,1029.27
2017-12-19T06:50:38.607Z,1029.25
2017-12-19T06:51:40.484Z,1029.20
2017-12-19T06:52:42.342Z,1029.21
2017-12-19T06:53:56.474Z,1029.21
2017-12-19T06:54:58.356Z,1029.26
2017-12-19T06:56:00.232Z,1029.26
2017-12-19T06:57:02.088Z,1029.27
2017-12-19T06:58:03.888Z,1029.27
2017-12-19T06:59:05.709Z,1029.27
2017-12-19T07:00:07.560Z,1029.27
2017-12-19T07:01:09.422Z,1029.28
2017-12-19T07:02:11.314Z,1029.25
2017-12-19T07:03:25.483Z,1029.33
2017-12-19T07:04:27.364Z,1029.32
2017-12-19T07:05:29.226Z,1029.35
2017-12-19T07:06:31.088Z,1029.36
2017-12-19T07:07:32.899Z,1029.43
2017-12-19T07:08:34.697Z,1029.44
2017-12-19T07:09:36.559Z,1029.44
2017-12-19T07:10:38.441Z,1029.47
2017-12-19T07:11:40.308Z,1029.49
2017-12-19T07:12:54.458Z,1029.53
2017-12-19T07:13:56.342Z,1029.52
2017-12-19T07:14:58.223Z,1029.59
2017-12-19T07:16:00.110Z,1029.58
2017-12-19T07:17:01.928Z,1029.65
2017-12-19T07:18:03.748Z,1029.66
2017-12-19T07:19:05.628Z,1029.63
2017-12-19T07:20:07.483Z,1029.69
2017-12-19T07:21:09.349Z,1029.73
2017-12-19T07:22:23.495Z,1029.75
2017-12-19T07:23:25.359Z,1029.81
2017-12-19T07:24:27.215Z,1029.89
2017-12-19T07:25:29.102Z,1029.87
2017-12-19T07:26:30.917Z,1029.80
2017-12-19T07:27:32.712Z,1029.79
2017-12-19T07:28:34.579Z,1029.78
2017-12-19T07:29:36.437Z,1029.76
2017-12-19T07:30:38.298Z,1029.81
2017-12-19T07:31:52.424Z,1029.85
2017-12-19T07:32:54.306Z,1029.87
2017-12-19T07:33:56.190Z,1029.87
2017-12-19T07:34:58.075Z,1029.86
2017-12-19T07:35:59.875Z,1029.89
2017-12-19T07:37:01.696Z,1029.83
2017-12-19T07:38:03.557Z,1029.77
2017-12-19T07:39:05.444Z,1029.84
2017-12-19T07:40:07.307Z,1029.84
2017-12-19T07:41:21.434Z,1029.92
2017-12-19T07:42:23.318Z,1029.94
2017-12-19T07:43:25.200Z,1029.97
2017-12-19T07:44:27.086Z,1030.01
2017-12-19T07:45:28.893Z,1030.01
2017-12-19T07:46:30.704Z,1030.10
2017-12-19T07:47:32.568Z,1030.15
2017-12-19T07:48:34.446Z,1030.18
2017-12-19T07:49:36.313Z,1030.20
2017-12-19T07:50:50.437Z,1030.19
2017-12-19T07:51:52.301Z,1030.13
2017-12-19T07:52:54.160Z,1030.10
2017-12-19T07:53:56.024Z,1030.14
2017-12-19T07:54:57.838Z,1030.14
2017-12-19T07:55:59.642Z,1030.18
2017-12-19T07:57:01.528Z,1030.24
2017-12-19T07:58:03.387Z,1030.29
2017-12-19T07:59:05.271Z,1030.26
2017-12-19T08:00:19.422Z,1030.23
2017-12-19T08:01:21.280Z,1030.22
2017-12-19T08:02:23.141Z,1030.22
2017-12-19T08:03:25.003Z,1030.19
2017-12-19T08:04:26.803Z,1030.22
2017-12-19T08:05:28.668Z,1030.20
2017-12-19T08:06:30.498Z,1030.23
2017-12-19T08:07:32.360Z,1030.14
2017-12-19T08:08:34.224Z,1030.20
2017-12-19T08:09:48.355Z,1030.21
2017-12-19T08:10:50.232Z,1030.17
2017-12-19T08:11:52.097Z,1030.17
2017-12-19T08:12:53.965Z,1030.18
2017-12-19T08:13:55.784Z,1030.18
2017-12-19T08:14:57.602Z,1030.11
2017-12-19T08:15:59.468Z,1030.09
2017-12-19T08:17:01.332Z,1030.15
2017-12-19T08:18:03.190Z,1030.16
2017-12-19T08:19:17.324Z,1030.16
2017-12-19T08:20:19.201Z,1030.14
2017-12-19T08:21:21.069Z,1030.13
2017-12-19T08:22:22.938Z,1030.14
2017-12-19T08:23:24.758Z,1030.12
2017-12-19T08:24:26.581Z,1030.08
2017-12-19T08:25:28.467Z,1030.15
2017-12-19T08:26:30.351Z,1030.15
2017-12-19T08:27:32.219Z,1030.19
2017-12-19T08:28:46.376Z,1030.19
2017-12-19T08:29:48.241Z,1030.15
2017-12-19T08:30:50.098Z,1030.18
2017-12-19T08:31:51.962Z,1030.17
2017-12-19T08:32:53.766Z,1030.20
2017-12-19T08:33:55.566Z,1030.19
2017-12-19T08:34:57.450Z,1030.21
2017-12-19T08:35:59.323Z,1030.20
2017-12-19T08:37:01.211Z,1030.21
2017-12-19T08:38:15.351Z,1030.22
2017-12-19T08:39:17.211Z,1030.19
2017-12-19T08:40:19.098Z,1030.19
2017-12-19T08:41:20.982Z,1030.14
2017-12-19T08:42:22.791Z,1030.16
2017-12-19T08:43:24.613Z,1030.14
2017-12-19T08:44:26.499Z,1030.18
2017-12-19T08:45:28.366Z,1030.21
2017-12-19T08:46:30.229Z,1030.18
2017-12-19T08:47:44.366Z,1030.21
2017-12-19T08:48:46.227Z,1030.24
2017-12-19T08:49:48.091Z,1030.26
2017-12-19T08:50:49.958Z,1030.22
2017-12-19T08:51:51.776Z,1030.19
2017-12-19T08:52:53.577Z,1030.19
2017-12-19T08:53:55.439Z,1030.20
2017-12-19T08:54:57.307Z,1030.23
2017-12-19T08:55:59.153Z,1030.31
2017-12-19T08:57:13.310Z,1030.30
2017-12-19T08:58:15.192Z,1030.32
2017-12-19T08:59:17.078Z,1030.27
2017-12-19T09:00:19.027Z,1030.25
2017-12-19T09:01:20.835Z,1030.20
2017-12-19T09:02:22.640Z,1030.19
2017-12-19T09:03:24.502Z,1030.22
2017-12-19T09:04:26.362Z,1030.32
2017-12-19T09:05:28.233Z,1030.30
2017-12-19T09:06:42.388Z,1030.28
2017-12-19T09:07:44.243Z,1030.30
2017-12-19T09:08:46.107Z,1030.34
2017-12-19T09:09:47.973Z,1030.39
2017-12-19T09:10:49.793Z,1030.41
2017-12-19T09:11:51.613Z,1030.41
2017-12-19T09:12:53.487Z,1030.41
2017-12-19T09:13:55.371Z,1030.37
2017-12-19T09:14:57.257Z,1030.36
2017-12-19T09:16:11.393Z,1030.38
2017-12-19T09:17:13.276Z,1030.34
2017-12-19T09:18:15.160Z,1030.33
2017-12-19T09:19:17.028Z,1030.32
2017-12-19T09:20:18.827Z,1030.36
2017-12-19T09:21:20.637Z,1030.44
2017-12-19T09:22:22.523Z,1030.44
2017-12-19T09:23:24.410Z,1030.42
2017-12-19T09:24:26.295Z,1030.44
2017-12-19T09:25:40.430Z,1030.39
2017-12-19T09:26:42.316Z,1030.43
2017-12-19T09:27:44.202Z,1030.45
2017-12-19T09:28:46.071Z,1030.38
2017-12-19T09:29:47.896Z,1030.32
2017-12-19T09:30:49.720Z,1030.29
2017-12-19T09:31:51.606Z,1030.23
2017-12-19T09:32:53.468Z,1030.18
2017-12-19T09:33:55.333Z,1030.18
2017-12-19T09:35:09.466Z,1030.25
2017-12-19T09:36:11.328Z,1030.27
2017-12-19T09:37:13.190Z,1030.32
2017-12-19T09:38:15.055Z,1030.32
2017-12-19T09:39:16.877Z,1030.36
2017-12-19T09:40:18.682Z,1030.32
2017-12-19T09:41:20.563Z,1030.28
2017-12-19T09:42:22.432Z,1030.26
2017-12-19T09:43:24.325Z,1030.33
2017-12-19T09:44:38.476Z,1030.42
2017-12-19T09:45:40.355Z,1030.41
2017-12-19T09:46:42.226Z,1030.44
2017-12-19T09:47:44.089Z,1030.41
2017-12-19T09:48:45.912Z,1030.37
2017-12-19T09:49:47.732Z,1030.34
2017-12-19T09:50:49.601Z,1030.30
2017-12-19T09:51:51.488Z,1030.27
2017-12-19T09:52:53.353Z,1030.36
2017-12-19T09:54:07.511Z,1030.39
2017-12-19T09:55:09.374Z,1030.35
2017-12-19T09:56:11.284Z,1030.32
2017-12-19T09:57:13.130Z,1030.33
2017-12-19T09:58:14.949Z,1030.29
2017-12-19T09:59:16.746Z,1030.22
2017-12-19T10:00:18.615Z,1030.26
2017-12-19T10:01:20.502Z,1030.29
2017-12-19T10:02:22.372Z,1030.36
2017-12-19T10:03:36.497Z,1030.44
2017-12-19T10:04:38.365Z,1030.41
2017-12-19T10:05:40.247Z,1030.43
2017-12-19T10:06:42.117Z,1030.43
2017-12-19T10:07:43.915Z,1030.41
2017-12-19T10:08:45.739Z,1030.41
2017-12-19T10:09:47.602Z,1030.40
2017-12-19T10:10:49.487Z,1030.43
2017-12-19T10:11:51.360Z,1030.39
2017-12-19T10:13:05.567Z,1030.40
2017-12-19T10:14:07.448Z,1030.34
2017-12-19T10:15:09.336Z,1030.39
2017-12-19T10:16:11.225Z,1030.47
2017-12-19T10:17:13.048Z,1030.45
2017-12-19T10:18:14.851Z,1030.40
2017-12-19T10:19:16.739Z,1030.36
2017-12-19T10:20:18.603Z,1030.35
2017-12-19T10:21:20.470Z,1030.38
2017-12-19T10:22:34.631Z,1030.42
2017-12-19T10:23:36.490Z,1030.46
2017-12-19T10:24:38.348Z,1030.53
2017-12-19T10:25:40.210Z,1030.53
2017-12-19T10:26:42.010Z,1030.58
2017-12-19T10:27:43.809Z,1030.59
2017-12-19T10:28:45.680Z,1030.54
2017-12-19T10:29:47.560Z,1030.59
2017-12-19T10:30:49.430Z,1030.60
2017-12-19T10:32:03.565Z,1030.58
2017-12-19T10:33:05.446Z,1030.57
2017-12-19T10:34:07.317Z,1030.57
2017-12-19T10:35:09.204Z,1030.58
2017-12-19T10:36:11.009Z,1030.58
2017-12-19T10:37:12.835Z,1030.59
2017-12-19T10:38:14.702Z,1030.54
2017-12-19T10:39:16.592Z,1030.57
2017-12-19T10:40:18.483Z,1030.54
2017-12-19T10:41:32.638Z,1030.51
2017-12-19T10:42:34.523Z,1030.52
2017-12-19T10:43:36.412Z,1030.54
2017-12-19T10:44:38.275Z,1030.54
2017-12-19T10:45:40.080Z,1030.54
2017-12-19T10:46:41.908Z,1030.54
2017-12-19T10:47:43.776Z,1030.56
2017-12-19T10:48:45.666Z,1030.54
2017-12-19T10:49:47.533Z,1030.55
2017-12-19T10:51:01.668Z,1030.51
2017-12-19T10:52:03.554Z,1030.56
2017-12-19T10:53:05.423Z,1030.62
2017-12-19T10:54:07.311Z,1030.67
2017-12-19T10:55:09.108Z,1030.62
2017-12-19T10:56:10.917Z,1030.46
2017-12-19T10:57:12.802Z,1030.45
2017-12-19T10:58:14.670Z,1030.40
2017-12-19T10:59:16.556Z,1030.43
2017-12-19T11:00:30.689Z,1030.47
2017-12-19T11:01:32.555Z,1030.35
2017-12-19T11:02:34.444Z,1030.34
2017-12-19T11:03:36.337Z,1030.33
2017-12-19T11:04:38.158Z,1030.28
2017-12-19T11:05:39.960Z,1030.22
2017-12-19T11:06:41.850Z,1030.08
2017-12-19T11:07:43.709Z,1030.03
2017-12-19T11:08:45.582Z,1030.01
2017-12-19T11:09:59.736Z,1030.16
2017-12-19T11:11:01.601Z,1030.11
2017-12-19T11:12:03.489Z,1030.03
2017-12-19T11:13:05.382Z,1029.97
2017-12-19T11:14:07.204Z,1029.99
2017-12-19T11:15:09.000Z,1030.03
2017-12-19T11:16:10.870Z,1030.07
2017-12-19T11:17:12.731Z,1030.07
2017-12-19T11:18:14.602Z,1030.05
2017-12-19T11:19:28.733Z,1030.03
2017-12-19T11:20:30.668Z,1030.02
2017-12-19T11:21:32.501Z,1030.00
2017-12-19T11:22:34.386Z,1030.01
2017-12-19T11:23:36.188Z,1030.10
2017-12-19T11:24:38.009Z,1030.08
2017-12-19T11:25:39.918Z,1030.05
2017-12-19T11:26:41.806Z,1030.09
2017-12-19T11:27:43.669Z,1030.04
2017-12-19T11:28:57.858Z,1030.04
2017-12-19T11:29:59.769Z,1030.09
2017-12-19T11:31:01.633Z,1030.03
2017-12-19T11:32:03.535Z,1030.03
2017-12-19T11:33:05.357Z,1030.01
2017-12-19T11:34:07.187Z,1029.98
2017-12-19T11:35:09.069Z,1030.00
2017-12-19T11:36:10.937Z,1029.96
2017-12-19T11:37:12.802Z,1029.93
2017-12-19T11:38:26.999Z,1029.97
2017-12-19T11:39:28.862Z,1029.89
2017-12-19T11:40:30.749Z,1029.89
2017-12-19T11:41:32.618Z,1029.86
2017-12-19T11:42:34.430Z,1029.90
2017-12-19T11:43:36.250Z,1029.96
2017-12-19T11:44:38.123Z,1029.93
2017-12-19T11:45:40.106Z,1029.97
2017-12-19T11:46:42.047Z,1029.94
2017-12-19T11:47:56.205Z,1029.92
2017-12-19T11:48:58.069Z,1029.93
2017-12-19T11:49:59.971Z,1029.98
2017-12-19T11:51:01.877Z,1029.92
2017-12-19T11:52:03.675Z,1029.89
2017-12-19T11:53:05.505Z,1029.88
2017-12-19T11:54:07.401Z,1029.95
2017-12-19T11:55:09.283Z,1030.03
2017-12-19T11:56:11.171Z,1030.01
2017-12-19T11:57:25.305Z,1029.99
2017-12-19T11:58:27.216Z,1030.02
2017-12-19T11:59:29.084Z,1030.02
2017-12-19T12:00:30.949Z,1030.02
2017-12-19T12:01:32.773Z,1029.99
2017-12-19T12:02:34.636Z,1029.94
2017-12-19T12:03:36.523Z,1029.96
2017-12-19T12:04:38.414Z,1029.87
2017-12-19T12:05:40.285Z,1029.83
2017-12-19T12:06:54.432Z,1029.83
2017-12-19T12:07:56.316Z,1029.82
2017-12-19T12:08:58.230Z,1029.78
2017-12-19T12:10:00.096Z,1029.69
2017-12-19T12:11:01.920Z,1029.70
2017-12-19T12:12:03.739Z,1029.68
2017-12-19T12:13:05.614Z,1029.68
2017-12-19T12:14:07.543Z,1029.69
2017-12-19T12:15:09.638Z,1029.71
2017-12-19T12:16:23.788Z,1029.75
2017-12-19T12:17:25.673Z,1029.64
2017-12-19T12:18:27.538Z,1029.57
2017-12-19T12:19:29.404Z,1029.45
2017-12-19T12:20:31.234Z,1029.57
2017-12-19T12:21:33.045Z,1029.55
2017-12-19T12:22:34.965Z,1029.54
2017-12-19T12:23:36.848Z,1029.49
2017-12-19T12:24:38.732Z,1029.54
2017-12-19T12:25:52.921Z,1029.55
2017-12-19T12:26:54.803Z,1029.56
2017-12-19T12:27:56.667Z,1029.57
2017-12-19T12:28:58.535Z,1029.53
2017-12-19T12:30:00.361Z,1029.53
2017-12-19T12:31:02.156Z,1029.48
2017-12-19T12:32:04.022Z,1029.47
2017-12-19T12:33:05.905Z,1029.42
2017-12-19T12:34:07.771Z,1029.39
2017-12-19T12:35:21.982Z,1029.35
2017-12-19T12:36:23.851Z,1029.30
2017-12-19T12:37:25.766Z,1029.29
2017-12-19T12:38:27.636Z,1029.23
2017-12-19T12:39:29.460Z,1029.16
2017-12-19T12:40:31.258Z,1029.21
2017-12-19T12:41:33.125Z,1029.16
2017-12-19T12:42:35.013Z,1029.17
2017-12-19T12:43:36.902Z,1029.18
2017-12-19T12:44:51.057Z,1029.21